createdAt,value
2023-05-21T00:01:01.249Z,14.60
2023-05-21T00:02:05.005Z,14.60
2023-05-21T00:03:13.849Z,14.60
2023-05-21T00:04:15.927Z,14.60
2023-05-21T00:05:18.385Z,14.60
2023-05-21T00:06:20.906Z,14.50
2023-05-21T00:07:23.337Z,14.50
2023-05-21T00:08:25.230Z,14.50
2023-05-21T00:09:27.051Z,14.50
2023-05-21T00:10:28.930Z,14.40
2023-05-21T00:11:31.460Z,14.40
2023-05-21T00:12:33.483Z,14.40
2023-05-21T00:13:35.310Z,14.40
2023-05-21T00:14:37.210Z,14.40
2023-05-21T00:15:39.485Z,14.40
2023-05-21T00:16:41.501Z,14.40
2023-05-21T00:17:43.604Z,14.40
2023-05-21T00:18:45.925Z,14.40
2023-05-21T00:19:48.153Z,14.40
2023-05-21T00:20:49.937Z,14.40
2023-05-21T00:21:51.758Z,14.40
2023-05-21T00:22:53.660Z,14.30
2023-05-21T00:23:56.435Z,14.30
2023-05-21T00:24:58.390Z,14.30
2023-05-21T00:26:00.219Z,14.40
2023-05-21T00:27:02.065Z,14.30
2023-05-21T00:28:04.088Z,14.30
2023-05-21T00:29:05.885Z,14.30
2023-05-21T00:30:08.444Z,14.30
2023-05-21T00:31:10.385Z,14.30
2023-05-21T00:32:12.295Z,14.20
2023-05-21T00:33:14.733Z,14.30
2023-05-21T00:34:16.689Z,14.30
2023-05-21T00:35:18.753Z,14.30
2023-05-21T00:36:23.863Z,14.20
2023-05-21T00:37:25.751Z,14.20
2023-05-21T00:38:27.956Z,14.20
2023-05-21T00:39:29.821Z,14.20
2023-05-21T00:40:31.767Z,14.20
2023-05-21T00:41:35.412Z,14.20
2023-05-21T00:42:41.633Z,14.20
2023-05-21T00:43:44.614Z,14.20
2023-05-21T00:44:46.403Z,14.20
2023-05-21T00:45:48.280Z,14.30
2023-05-21T00:46:53.767Z,14.30
2023-05-21T00:47:56.081Z,14.20
2023-05-21T00:48:58.980Z,14.20
2023-05-21T00:50:03.687Z,14.20
2023-05-21T00:51:06.504Z,14.20
2023-05-21T00:52:08.545Z,14.20
2023-05-21T00:53:11.483Z,14.20
2023-05-21T00:54:13.323Z,14.20
2023-05-21T00:55:15.458Z,14.20
2023-05-21T00:56:17.675Z,14.20
2023-05-21T00:57:23.296Z,14.20
2023-05-21T00:58:25.687Z,14.10
2023-05-21T00:59:27.491Z,14.10
2023-05-21T01:00:29.570Z,14.10
2023-05-21T01:01:33.896Z,14.10
2023-05-21T01:02:37.335Z,14.10
2023-05-21T01:03:41.105Z,14.10
2023-05-21T01:04:43.314Z,14.10
2023-05-21T01:05:46.777Z,14.10
2023-05-21T01:06:48.617Z,14.00
2023-05-21T01:07:50.685Z,14.00
2023-05-21T01:08:52.571Z,14.00
2023-05-21T01:09:54.383Z,14.00
2023-05-21T01:10:57.564Z,14.00
2023-05-21T01:12:01.034Z,14.00
2023-05-21T01:13:03.225Z,14.00
2023-05-21T01:14:08.006Z,14.00
2023-05-21T01:15:10.970Z,14.00
2023-05-21T01:16:13.710Z,14.00
2023-05-21T01:17:16.369Z,14.00
2023-05-21T01:18:20.113Z,14.00
2023-05-21T01:19:24.437Z,14.00
2023-05-21T01:20:27.425Z,14.00
2023-05-21T01:21:30.389Z,14.00
2023-05-21T01:22:34.547Z,14.00
2023-05-21T01:23:36.474Z,14.00
2023-05-21T01:24:38.304Z,14.00
2023-05-21T01:25:42.324Z,14.00
2023-05-21T01:26:46.564Z,14.00
2023-05-21T01:27:48.626Z,14.00
2023-05-21T01:28:51.876Z,14.00
2023-05-21T01:29:53.873Z,14.00
2023-05-21T01:30:59.309Z,14.00
2023-05-21T01:32:07.087Z,14.00
2023-05-21T01:33:18.495Z,13.90
2023-05-21T01:34:24.109Z,13.90
2023-05-21T01:36:09.707Z,13.90
2023-05-21T01:37:36.663Z,13.90
2023-05-21T01:38:47.393Z,13.80
2023-05-21T01:39:57.413Z,13.80
2023-05-21T01:41:06.997Z,13.90
2023-05-21T01:42:10.838Z,13.80
2023-05-21T01:43:14.323Z,13.80
2023-05-21T01:44:18.929Z,13.80
2023-05-21T01:45:24.000Z,13.80
2023-05-21T01:46:30.827Z,13.80
2023-05-21T01:47:34.457Z,13.80
2023-05-21T01:48:36.711Z,13.80
2023-05-21T01:49:39.155Z,13.80
2023-05-21T01:50:43.611Z,13.80
2023-05-21T01:51:45.982Z,13.80
2023-05-21T01:52:53.646Z,13.80
2023-05-21T01:53:55.545Z,13.80
2023-05-21T01:54:57.804Z,13.80
2023-05-21T01:55:59.638Z,13.80
2023-05-21T01:57:01.706Z,13.80
2023-05-21T01:58:03.500Z,13.70
2023-05-21T01:59:05.937Z,13.70
2023-05-21T02:00:09.161Z,13.70
2023-05-21T02:01:11.976Z,13.70
2023-05-21T02:02:14.112Z,13.70
2023-05-21T02:03:16.552Z,13.70
2023-05-21T02:04:18.575Z,13.70
2023-05-21T02:05:20.424Z,13.70
2023-05-21T02:06:22.686Z,13.70
2023-05-21T02:07:24.664Z,13.70
2023-05-21T02:08:27.320Z,13.70
2023-05-21T02:09:29.255Z,13.70
2023-05-21T02:10:31.137Z,13.70
2023-05-21T02:11:33.108Z,13.70
2023-05-21T02:12:35.076Z,13.70
2023-05-21T02:13:42.072Z,13.60
2023-05-21T02:14:43.870Z,13.60
2023-05-21T02:15:45.756Z,13.60
2023-05-21T02:16:47.734Z,13.60
2023-05-21T02:17:51.479Z,13.60
2023-05-21T02:18:57.417Z,13.60
2023-05-21T02:20:08.536Z,13.60
2023-05-21T02:21:13.487Z,13.50
2023-05-21T02:22:15.461Z,13.60
2023-05-21T02:23:17.314Z,13.60
2023-05-21T02:24:19.311Z,13.60
2023-05-21T02:25:21.138Z,13.60
2023-05-21T02:26:23.163Z,13.50
2023-05-21T02:27:25.062Z,13.50
2023-05-21T02:28:27.284Z,13.50
2023-05-21T02:29:29.530Z,13.50
2023-05-21T02:30:31.372Z,13.50
2023-05-21T02:31:33.121Z,13.50
2023-05-21T02:32:35.861Z,13.50
2023-05-21T02:33:41.243Z,13.50
2023-05-21T02:34:45.177Z,13.50
2023-05-21T02:35:46.987Z,13.50
2023-05-21T02:36:52.236Z,13.50
2023-05-21T02:37:54.366Z,13.50
2023-05-21T02:38:57.769Z,13.40
2023-05-21T02:40:00.537Z,13.50
2023-05-21T02:41:02.322Z,13.40
2023-05-21T02:42:04.302Z,13.50
2023-05-21T02:43:06.467Z,13.50
2023-05-21T02:44:08.369Z,13.50
2023-05-21T02:45:11.924Z,13.40
2023-05-21T02:46:13.776Z,13.40
2023-05-21T02:47:15.627Z,13.40
2023-05-21T02:48:17.466Z,13.40
2023-05-21T02:49:19.426Z,13.40
2023-05-21T02:50:22.800Z,13.40
2023-05-21T02:51:24.789Z,13.40
2023-05-21T02:52:26.703Z,13.40
2023-05-21T02:53:28.506Z,13.40
2023-05-21T02:54:30.492Z,13.40
2023-05-21T02:55:32.354Z,13.40
2023-05-21T02:56:34.151Z,13.30
2023-05-21T02:57:36.034Z,13.30
2023-05-21T02:58:38.006Z,13.30
2023-05-21T02:59:40.021Z,13.30
2023-05-21T03:00:41.967Z,13.30
2023-05-21T03:01:45.233Z,13.30
2023-05-21T03:02:47.337Z,13.30
2023-05-21T03:03:49.442Z,13.30
2023-05-21T03:04:51.823Z,13.30
2023-05-21T03:05:54.034Z,13.30
2023-05-21T03:06:57.156Z,13.30
2023-05-21T03:07:59.030Z,13.20
2023-05-21T03:09:00.797Z,13.20
2023-05-21T03:10:02.676Z,13.20
2023-05-21T03:11:04.976Z,13.20
2023-05-21T03:12:06.967Z,13.20
2023-05-21T03:13:10.005Z,13.20
2023-05-21T03:14:12.063Z,13.20
2023-05-21T03:15:16.648Z,13.20
2023-05-21T03:16:18.712Z,13.20
2023-05-21T03:17:20.756Z,13.20
2023-05-21T03:18:23.400Z,13.20
2023-05-21T03:19:25.412Z,13.20
2023-05-21T03:20:28.164Z,13.20
2023-05-21T03:21:30.325Z,13.20
2023-05-21T03:22:32.438Z,13.20
2023-05-21T03:23:34.948Z,13.20
2023-05-21T03:24:38.198Z,13.20
2023-05-21T03:25:40.281Z,13.20
2023-05-21T03:26:42.079Z,13.20
2023-05-21T03:27:44.014Z,13.20
2023-05-21T03:28:45.782Z,13.10
2023-05-21T03:29:47.674Z,13.20
2023-05-21T03:30:51.045Z,13.10
2023-05-21T03:31:54.052Z,13.10
2023-05-21T03:32:56.538Z,13.10
2023-05-21T03:33:58.369Z,13.10
2023-05-21T03:35:00.240Z,13.10
2023-05-21T03:36:02.018Z,13.10
2023-05-21T03:37:03.811Z,13.10
2023-05-21T03:38:05.814Z,13.00
2023-05-21T03:39:07.664Z,13.00
2023-05-21T03:40:09.974Z,13.00
2023-05-21T03:41:12.460Z,13.00
2023-05-21T03:42:14.401Z,13.10
2023-05-21T03:43:16.253Z,13.00
2023-05-21T03:44:18.443Z,13.00
2023-05-21T03:45:20.450Z,13.00
2023-05-21T03:46:22.321Z,13.00
2023-05-21T03:47:24.205Z,13.00
2023-05-21T03:48:26.091Z,13.00
2023-05-21T03:49:27.929Z,13.10
2023-05-21T03:50:30.871Z,13.00
2023-05-21T03:51:32.631Z,13.00
2023-05-21T03:52:34.605Z,13.10
2023-05-21T03:53:36.990Z,13.10
2023-05-21T03:54:38.837Z,13.10
2023-05-21T03:55:41.101Z,13.10
2023-05-21T03:56:42.886Z,13.00
2023-05-21T03:57:44.687Z,13.00
2023-05-21T03:58:46.889Z,13.00
2023-05-21T03:59:48.697Z,13.00
2023-05-21T04:00:51.014Z,13.00
2023-05-21T04:01:52.835Z,13.00
2023-05-21T04:02:54.740Z,13.00
2023-05-21T04:03:56.816Z,13.10
2023-05-21T04:04:58.854Z,13.00
2023-05-21T04:06:03.916Z,13.00
2023-05-21T04:07:05.678Z,13.00
2023-05-21T04:08:07.415Z,13.00
2023-05-21T04:09:09.198Z,13.00
2023-05-21T04:10:11.206Z,13.00
2023-05-21T04:11:13.041Z,13.00
2023-05-21T04:12:15.292Z,13.00
2023-05-21T04:13:17.202Z,13.00
2023-05-21T04:14:19.035Z,13.00
2023-05-21T04:15:21.188Z,13.00
2023-05-21T04:17:27.053Z,13.10
2023-05-21T04:18:28.940Z,13.00
2023-05-21T04:19:31.071Z,13.00
2023-05-21T04:20:32.960Z,13.00
2023-05-21T04:21:34.934Z,13.00
2023-05-21T04:22:36.735Z,12.90
2023-05-21T04:23:38.715Z,13.00
2023-05-21T04:24:40.541Z,13.00
2023-05-21T04:25:42.383Z,13.00
2023-05-21T04:26:44.608Z,13.00
2023-05-21T04:27:47.787Z,13.10
2023-05-21T04:28:50.452Z,13.10
2023-05-21T04:29:54.723Z,13.10
2023-05-21T04:30:56.766Z,13.10
2023-05-21T04:31:58.749Z,13.10
2023-05-21T04:33:00.727Z,13.10
2023-05-21T04:34:02.738Z,13.10
2023-05-21T04:35:04.964Z,13.10
2023-05-21T04:36:09.852Z,13.10
2023-05-21T04:37:12.087Z,13.10
2023-05-21T04:38:14.222Z,13.20
2023-05-21T04:39:17.101Z,13.20
2023-05-21T04:40:24.289Z,13.20
2023-05-21T04:41:26.068Z,13.20
2023-05-21T04:42:28.171Z,13.20
2023-05-21T04:43:30.438Z,13.20
2023-05-21T04:44:32.274Z,13.20
2023-05-21T04:45:34.249Z,13.20
2023-05-21T04:46:36.290Z,13.20
2023-05-21T04:47:38.712Z,13.20
2023-05-21T04:48:41.043Z,13.30
2023-05-21T04:49:42.908Z,13.30
2023-05-21T04:50:45.399Z,13.30
2023-05-21T04:51:47.388Z,13.30
2023-05-21T04:52:49.153Z,13.30
2023-05-21T04:53:50.988Z,13.30
2023-05-21T04:54:54.241Z,13.40
2023-05-21T04:55:56.104Z,13.40
2023-05-21T04:56:58.189Z,13.40
2023-05-21T04:57:59.966Z,13.40
2023-05-21T04:59:05.205Z,13.40
2023-05-21T05:00:08.709Z,13.40
2023-05-21T05:01:12.367Z,13.50
2023-05-21T05:02:14.202Z,13.50
2023-05-21T05:03:16.272Z,13.50
2023-05-21T05:04:18.245Z,13.60
2023-05-21T05:05:20.091Z,13.50
2023-05-21T05:06:22.313Z,13.50
2023-05-21T05:07:24.108Z,13.50
2023-05-21T05:08:25.889Z,13.50
2023-05-21T05:09:27.781Z,13.50
2023-05-21T05:10:29.754Z,13.50
2023-05-21T05:11:31.576Z,13.50
2023-05-21T05:12:33.408Z,13.60
2023-05-21T05:13:35.335Z,13.60
2023-05-21T05:14:37.245Z,13.60
2023-05-21T05:15:39.129Z,13.60
2023-05-21T05:16:41.062Z,13.70
2023-05-21T05:17:43.079Z,13.70
2023-05-21T05:18:44.893Z,13.70
2023-05-21T05:19:46.670Z,13.70
2023-05-21T05:20:48.390Z,13.70
2023-05-21T05:21:50.213Z,13.70
2023-05-21T05:22:52.010Z,13.80
2023-05-21T05:23:53.807Z,13.80
2023-05-21T05:24:55.624Z,13.80
2023-05-21T05:25:57.493Z,13.80
2023-05-21T05:26:59.319Z,13.90
2023-05-21T05:28:01.361Z,13.90
2023-05-21T05:29:03.506Z,13.90
2023-05-21T05:30:05.952Z,13.90
2023-05-21T05:31:08.038Z,13.90
2023-05-21T05:32:09.986Z,14.00
2023-05-21T05:33:12.006Z,14.00
2023-05-21T05:34:13.899Z,14.10
2023-05-21T05:35:16.012Z,14.10
2023-05-21T05:36:18.018Z,14.20
2023-05-21T05:37:19.817Z,14.10
2023-05-21T05:38:22.196Z,14.10
2023-05-21T05:39:24.011Z,14.20
2023-05-21T05:40:25.798Z,14.20
2023-05-21T05:41:27.660Z,14.20
2023-05-21T05:42:29.793Z,14.20
2023-05-21T05:43:31.636Z,14.30
2023-05-21T05:44:33.519Z,14.30
2023-05-21T05:45:35.445Z,14.40
2023-05-21T05:46:37.718Z,14.40
2023-05-21T05:47:39.751Z,14.40
2023-05-21T05:48:41.563Z,14.50
2023-05-21T05:49:43.734Z,14.50
2023-05-21T05:50:46.561Z,14.60
2023-05-21T05:51:48.496Z,14.60
2023-05-21T05:52:51.291Z,14.60
2023-05-21T05:53:53.101Z,14.70
2023-05-21T05:54:54.890Z,14.70
2023-05-21T05:55:56.679Z,14.80
2023-05-21T05:56:58.452Z,14.80
2023-05-21T05:58:00.335Z,14.90
2023-05-21T05:59:02.207Z,14.90
2023-05-21T06:00:05.277Z,15.00
2023-05-21T06:01:07.153Z,15.00
2023-05-21T06:02:09.005Z,15.10
2023-05-21T06:03:12.249Z,15.10
2023-05-21T06:04:14.193Z,15.20
2023-05-21T06:05:16.564Z,15.30
2023-05-21T06:06:18.642Z,15.30
2023-05-21T06:07:20.618Z,15.30
2023-05-21T06:08:23.330Z,15.30
2023-05-21T06:09:25.558Z,15.50
2023-05-21T06:10:27.373Z,15.50
2023-05-21T06:11:29.356Z,15.50
2023-05-21T06:12:31.121Z,15.60
2023-05-21T06:13:32.918Z,15.60
2023-05-21T06:14:34.838Z,15.70
2023-05-21T06:15:36.894Z,15.70
2023-05-21T06:16:39.160Z,15.70
2023-05-21T06:17:41.316Z,15.80
2023-05-21T06:18:43.224Z,15.80
2023-05-21T06:19:45.825Z,15.80
2023-05-21T06:20:47.686Z,15.90
2023-05-21T06:21:49.492Z,15.90
2023-05-21T06:22:51.319Z,16.00
2023-05-21T06:23:53.510Z,16.00
2023-05-21T06:24:55.307Z,16.00
2023-05-21T06:25:57.111Z,16.10
2023-05-21T06:26:58.992Z,16.10
2023-05-21T06:28:00.954Z,16.20
2023-05-21T06:29:03.886Z,16.20
2023-05-21T06:30:07.323Z,16.30
2023-05-21T06:31:09.095Z,16.30
2023-05-21T06:32:11.246Z,16.40
2023-05-21T06:33:13.092Z,16.40
2023-05-21T06:34:15.014Z,16.50
2023-05-21T06:35:16.780Z,16.50
2023-05-21T06:36:18.693Z,16.60
2023-05-21T06:37:21.876Z,16.60
2023-05-21T06:38:23.784Z,16.60
2023-05-21T06:39:27.161Z,16.70
2023-05-21T06:40:28.978Z,16.70
2023-05-21T06:41:31.004Z,16.80
2023-05-21T06:42:32.856Z,16.80
2023-05-21T06:43:34.876Z,16.80
2023-05-21T06:44:36.690Z,16.90
2023-05-21T06:45:38.806Z,16.90
2023-05-21T06:46:40.946Z,16.90
2023-05-21T06:47:42.856Z,17.00
2023-05-21T06:48:45.912Z,17.00
2023-05-21T06:49:47.764Z,17.00
2023-05-21T06:50:49.551Z,17.00
2023-05-21T06:51:51.331Z,17.10
2023-05-21T06:52:53.159Z,17.10
2023-05-21T06:53:55.116Z,17.10
2023-05-21T06:54:56.981Z,17.20
2023-05-21T06:55:58.865Z,17.20
2023-05-21T06:57:00.932Z,17.30
2023-05-21T06:58:02.769Z,17.30
2023-05-21T06:59:04.590Z,17.30
2023-05-21T07:00:09.205Z,17.30
2023-05-21T07:01:12.048Z,17.40
2023-05-21T07:02:13.922Z,17.40
2023-05-21T07:03:16.359Z,17.50
2023-05-21T07:04:18.385Z,17.50
2023-05-21T07:05:20.847Z,17.60
2023-05-21T07:06:22.685Z,17.60
2023-05-21T07:07:24.514Z,17.70
2023-05-21T07:08:26.435Z,17.70
2023-05-21T07:09:28.312Z,17.80
2023-05-21T07:10:30.156Z,17.90
2023-05-21T07:11:33.005Z,17.90
2023-05-21T07:12:34.813Z,18.00
2023-05-21T07:13:36.744Z,18.00
2023-05-21T07:14:38.515Z,18.00
2023-05-21T07:15:40.523Z,18.00
2023-05-21T07:16:42.449Z,18.00
2023-05-21T07:17:44.545Z,18.00
2023-05-21T07:18:46.892Z,18.00
2023-05-21T07:19:48.718Z,18.00
2023-05-21T07:20:50.617Z,18.00
2023-05-21T07:21:52.512Z,18.00
2023-05-21T07:22:54.318Z,18.00
2023-05-21T07:23:56.710Z,18.00
2023-05-21T07:24:58.729Z,18.10
2023-05-21T07:26:00.671Z,18.10
2023-05-21T07:27:11.350Z,18.10
2023-05-21T07:28:20.433Z,18.20
2023-05-21T07:29:22.231Z,18.20
2023-05-21T07:30:24.140Z,18.30
2023-05-21T07:31:26.096Z,18.30
2023-05-21T07:32:29.308Z,18.40
2023-05-21T07:33:31.387Z,18.50
2023-05-21T07:34:33.258Z,18.50
2023-05-21T07:35:35.303Z,18.60
2023-05-21T07:36:37.572Z,18.60
2023-05-21T07:37:39.575Z,18.70
2023-05-21T07:38:41.493Z,18.70
2023-05-21T07:39:43.309Z,18.80
2023-05-21T07:40:45.138Z,18.80
2023-05-21T07:41:47.267Z,18.80
2023-05-21T07:42:49.072Z,18.90
2023-05-21T07:43:50.844Z,18.90
2023-05-21T07:44:52.728Z,19.00
2023-05-21T07:45:54.519Z,19.10
2023-05-21T07:46:56.435Z,19.10
2023-05-21T07:47:58.416Z,19.20
2023-05-21T07:49:00.717Z,19.20
2023-05-21T07:50:02.558Z,19.30
2023-05-21T07:51:04.766Z,19.40
2023-05-21T07:52:06.882Z,19.40
2023-05-21T07:53:08.780Z,19.60
2023-05-21T07:54:11.205Z,19.60
2023-05-21T07:55:13.029Z,19.70
2023-05-21T07:56:14.960Z,19.70
2023-05-21T07:57:16.891Z,19.80
2023-05-21T07:58:19.672Z,19.90
2023-05-21T07:59:21.647Z,19.90
2023-05-21T08:00:24.353Z,20.00
2023-05-21T08:01:28.350Z,20.00
2023-05-21T08:02:30.206Z,20.00
2023-05-21T08:03:32.191Z,20.10
2023-05-21T08:04:34.108Z,20.20
2023-05-21T08:05:36.102Z,20.30
2023-05-21T08:06:38.131Z,20.30
2023-05-21T08:07:40.272Z,20.40
2023-05-21T08:08:42.086Z,20.50
2023-05-21T08:09:43.876Z,20.60
2023-05-21T08:10:46.471Z,20.60
2023-05-21T08:11:48.330Z,20.60
2023-05-21T08:12:50.086Z,20.60
2023-05-21T08:13:51.955Z,20.70
2023-05-21T08:14:53.787Z,20.70
2023-05-21T08:15:55.575Z,20.80
2023-05-21T08:16:57.417Z,20.90
2023-05-21T08:17:59.491Z,21.00
2023-05-21T08:19:01.383Z,21.10
2023-05-21T08:20:04.493Z,21.20
2023-05-21T08:21:06.429Z,21.30
2023-05-21T08:22:08.434Z,21.30
2023-05-21T08:23:10.199Z,21.40
2023-05-21T08:24:12.026Z,21.30
2023-05-21T08:25:13.959Z,21.20
2023-05-21T08:26:18.597Z,21.20
2023-05-21T08:27:21.324Z,21.30
2023-05-21T08:28:27.516Z,21.30
2023-05-21T08:29:29.326Z,21.40
2023-05-21T08:30:31.311Z,21.40
2023-05-21T08:31:33.097Z,21.50
2023-05-21T08:32:34.943Z,21.60
2023-05-21T08:33:39.642Z,21.70
2023-05-21T08:34:41.521Z,21.80
2023-05-21T08:35:43.373Z,21.80
2023-05-21T08:36:46.276Z,21.90
2023-05-21T08:37:48.094Z,21.90
2023-05-21T08:38:49.909Z,22.00
2023-05-21T08:39:51.699Z,22.10
2023-05-21T08:40:55.273Z,22.10
2023-05-21T08:42:09.696Z,22.20
2023-05-21T08:43:14.064Z,22.20
2023-05-21T08:44:21.741Z,22.10
2023-05-21T08:45:24.048Z,22.10
2023-05-21T08:46:27.399Z,22.10
2023-05-21T08:47:34.188Z,22.10
2023-05-21T08:48:38.858Z,22.10
2023-05-21T08:49:42.920Z,22.20
2023-05-21T08:50:46.376Z,22.20
2023-05-21T08:51:50.362Z,22.30
2023-05-21T08:52:52.668Z,22.30
2023-05-21T08:53:57.116Z,22.30
2023-05-21T08:55:00.003Z,22.40
2023-05-21T08:56:01.993Z,22.50
2023-05-21T08:57:04.678Z,22.50
2023-05-21T08:58:06.728Z,22.50
2023-05-21T08:59:08.765Z,22.60
2023-05-21T09:00:11.892Z,22.60
2023-05-21T09:01:14.213Z,22.50
2023-05-21T09:02:18.435Z,22.50
2023-05-21T09:03:22.569Z,22.40
2023-05-21T09:04:24.799Z,22.40
2023-05-21T09:05:27.869Z,22.50
2023-05-21T09:06:29.921Z,22.50
2023-05-21T09:07:37.430Z,22.50
2023-05-21T09:08:43.570Z,22.50
2023-05-21T09:09:54.325Z,22.50
2023-05-21T09:10:56.300Z,22.50
2023-05-21T09:11:58.142Z,22.50
2023-05-21T09:13:01.192Z,22.50
2023-05-21T09:14:04.086Z,22.50
2023-05-21T09:15:07.093Z,22.50
2023-05-21T09:16:10.693Z,22.50
2023-05-21T09:17:14.902Z,22.50
2023-05-21T09:18:16.858Z,22.50
2023-05-21T09:19:24.441Z,22.50
2023-05-21T09:20:27.822Z,22.40
2023-05-21T09:21:31.524Z,22.40
2023-05-21T09:22:33.688Z,22.30
2023-05-21T09:23:35.681Z,22.30
2023-05-21T09:24:37.594Z,22.20
2023-05-21T09:25:40.041Z,22.20
2023-05-21T09:26:45.144Z,22.20
2023-05-21T09:27:47.224Z,22.20
2023-05-21T09:28:49.076Z,22.10
2023-05-21T09:29:51.484Z,22.20
2023-05-21T09:30:56.166Z,22.20
2023-05-21T09:31:58.907Z,22.20
2023-05-21T09:33:01.761Z,22.20
2023-05-21T09:34:03.798Z,22.10
2023-05-21T09:35:08.318Z,22.00
2023-05-21T09:36:10.203Z,22.00
2023-05-21T09:37:23.685Z,22.10
2023-05-21T09:38:29.511Z,22.10
2023-05-21T09:39:31.454Z,22.10
2023-05-21T09:40:35.815Z,22.20
2023-05-21T09:41:38.417Z,22.20
2023-05-21T09:42:46.134Z,22.30
2023-05-21T09:43:48.025Z,22.40
2023-05-21T09:44:50.016Z,22.40
2023-05-21T09:45:58.344Z,22.40
2023-05-21T09:47:02.538Z,22.50
2023-05-21T09:48:04.608Z,22.50
2023-05-21T09:49:06.435Z,22.60
2023-05-21T09:50:12.855Z,22.60
2023-05-21T09:51:16.391Z,22.70
2023-05-21T09:52:29.148Z,22.80
2023-05-21T09:53:31.035Z,23.00
2023-05-21T09:54:34.569Z,23.10
2023-05-21T09:55:36.704Z,23.20
2023-05-21T09:56:40.161Z,23.30
2023-05-21T09:57:43.732Z,23.40
2023-05-21T09:58:46.100Z,23.40
2023-05-21T09:59:50.724Z,23.50
2023-05-21T10:00:53.217Z,23.50
2023-05-21T10:01:55.647Z,23.50
2023-05-21T10:03:02.000Z,23.50
2023-05-21T10:04:07.938Z,23.60
2023-05-21T10:05:11.839Z,23.70
2023-05-21T10:06:15.021Z,23.60
2023-05-21T10:07:26.649Z,23.70
2023-05-21T10:08:33.077Z,23.80
2023-05-21T10:09:34.953Z,23.90
2023-05-21T10:10:40.994Z,24.10
2023-05-21T10:11:45.108Z,24.10
2023-05-21T10:12:48.124Z,24.10
2023-05-21T10:13:55.767Z,24.20
2023-05-21T10:15:02.531Z,24.30
2023-05-21T10:16:05.367Z,24.40
2023-05-21T10:17:07.795Z,24.50
2023-05-21T10:18:12.339Z,24.60
2023-05-21T10:19:16.178Z,24.70
2023-05-21T10:20:18.419Z,24.80
2023-05-21T10:21:22.986Z,24.80
2023-05-21T10:22:25.610Z,25.00
2023-05-21T10:23:28.344Z,24.90
2023-05-21T10:24:31.173Z,24.80
2023-05-21T10:25:33.512Z,24.70
2023-05-21T10:26:36.295Z,24.70
2023-05-21T10:27:38.463Z,24.60
2023-05-21T10:28:40.629Z,24.60
2023-05-21T10:29:45.540Z,24.50
2023-05-21T10:30:47.669Z,24.50
2023-05-21T10:31:51.308Z,24.50
2023-05-21T10:32:55.689Z,24.60
2023-05-21T10:33:58.218Z,24.60
2023-05-21T10:35:02.410Z,24.70
2023-05-21T10:36:04.979Z,24.70
2023-05-21T10:37:09.933Z,24.80
2023-05-21T10:38:13.462Z,24.90
2023-05-21T10:39:17.155Z,24.90
2023-05-21T10:40:19.044Z,24.90
2023-05-21T10:41:22.068Z,24.80
2023-05-21T10:42:23.873Z,24.90
2023-05-21T10:43:44.117Z,24.90
2023-05-21T10:44:48.710Z,25.00
2023-05-21T10:46:21.156Z,25.00
2023-05-21T10:47:40.962Z,25.10
2023-05-21T10:49:18.614Z,25.10
2023-05-21T10:50:35.558Z,25.10
2023-05-21T10:51:55.266Z,25.10
2023-05-21T10:53:02.943Z,25.10
2023-05-21T10:54:26.725Z,25.00
2023-05-21T10:55:48.034Z,24.90
2023-05-21T10:57:04.940Z,24.90
2023-05-21T10:58:51.136Z,24.90
2023-05-21T10:59:53.261Z,24.90
2023-05-21T11:00:55.958Z,24.90
2023-05-21T11:01:58.182Z,24.90
2023-05-21T11:03:02.241Z,24.80
2023-05-21T11:04:06.183Z,24.80
2023-05-21T11:05:08.218Z,24.70
2023-05-21T11:06:11.688Z,24.70
2023-05-21T11:07:13.692Z,24.70
2023-05-21T11:08:33.739Z,24.70
2023-05-21T11:09:35.778Z,24.90
2023-05-21T11:10:41.330Z,25.00
2023-05-21T11:11:44.331Z,25.10
2023-05-21T11:13:06.085Z,25.10
2023-05-21T11:14:31.640Z,25.20
2023-05-21T11:15:59.741Z,25.20
2023-05-21T11:17:16.364Z,25.40
2023-05-21T11:18:18.339Z,25.40
2023-05-21T11:19:20.360Z,25.30
2023-05-21T11:20:23.274Z,25.20
2023-05-21T11:21:30.460Z,25.10
2023-05-21T11:22:35.650Z,25.10
2023-05-21T11:24:06.320Z,25.10
2023-05-21T11:25:08.577Z,25.10
2023-05-21T11:26:10.959Z,25.20
2023-05-21T11:27:13.166Z,25.30
2023-05-21T11:28:14.967Z,25.20
2023-05-21T11:29:19.635Z,25.20
2023-05-21T11:30:21.437Z,25.10
2023-05-21T11:31:27.362Z,25.10
2023-05-21T11:32:29.883Z,25.10
2023-05-21T11:33:33.437Z,25.10
2023-05-21T11:34:46.396Z,25.20
2023-05-21T11:35:48.164Z,25.30
2023-05-21T11:37:10.368Z,25.30
2023-05-21T11:38:12.277Z,25.20
2023-05-21T11:39:15.819Z,25.00
2023-05-21T11:40:18.778Z,25.00
2023-05-21T11:41:22.221Z,24.90
2023-05-21T11:42:35.235Z,24.90
2023-05-21T11:43:40.915Z,24.90
2023-05-21T11:44:48.025Z,24.90
2023-05-21T11:45:53.039Z,25.00
2023-05-21T11:46:55.265Z,24.80
2023-05-21T11:47:57.731Z,24.90
2023-05-21T11:49:00.738Z,24.90
2023-05-21T11:50:04.451Z,24.90
2023-05-21T11:51:07.635Z,25.00
2023-05-21T11:52:11.307Z,25.10
2023-05-21T11:53:13.396Z,25.20
2023-05-21T11:54:17.841Z,25.20
2023-05-21T11:55:24.979Z,25.20
2023-05-21T11:56:28.372Z,25.20
2023-05-21T11:57:33.331Z,25.20
2023-05-21T11:58:35.154Z,25.20
2023-05-21T11:59:37.479Z,25.20
2023-05-21T12:00:40.348Z,25.30
2023-05-21T12:01:43.682Z,25.30
2023-05-21T12:02:51.858Z,25.40
2023-05-21T12:03:53.704Z,25.40
2023-05-21T12:05:00.321Z,25.40
2023-05-21T12:06:06.760Z,25.40
2023-05-21T12:07:15.518Z,25.30
2023-05-21T12:08:28.861Z,25.40
2023-05-21T12:09:30.867Z,25.30
2023-05-21T12:10:32.941Z,25.40
2023-05-21T12:11:34.843Z,25.40
2023-05-21T12:12:49.886Z,25.40
2023-05-21T12:13:55.817Z,25.40
2023-05-21T12:14:58.966Z,25.30
2023-05-21T12:16:03.971Z,25.30
2023-05-21T12:17:07.833Z,25.30
2023-05-21T12:18:09.898Z,25.40
2023-05-21T12:19:15.056Z,25.40
2023-05-21T12:20:19.705Z,25.50
2023-05-21T12:21:21.832Z,25.50
2023-05-21T12:22:25.166Z,25.50
2023-05-21T12:23:26.996Z,25.50
2023-05-21T12:24:29.204Z,25.50
2023-05-21T12:25:32.119Z,25.50
2023-05-21T12:26:38.162Z,25.60
2023-05-21T12:27:42.139Z,25.60
2023-05-21T12:28:44.780Z,25.70
2023-05-21T12:29:50.588Z,25.70
2023-05-21T12:30:53.654Z,25.80
2023-05-21T12:32:00.430Z,25.90
2023-05-21T12:33:03.129Z,25.80
2023-05-21T12:34:05.245Z,25.90
2023-05-21T12:35:07.508Z,25.80
2023-05-21T12:36:09.376Z,25.90
2023-05-21T12:37:23.186Z,25.80
2023-05-21T12:38:30.031Z,25.80
2023-05-21T12:39:32.197Z,25.80
2023-05-21T12:40:38.669Z,25.90
2023-05-21T12:41:41.417Z,25.90
2023-05-21T12:42:44.603Z,25.90
2023-05-21T12:43:47.182Z,25.90
2023-05-21T12:44:49.217Z,25.70
2023-05-21T12:45:51.881Z,25.70
2023-05-21T12:46:53.822Z,25.70
2023-05-21T12:50:12.450Z,25.60
2023-05-21T12:51:14.320Z,25.60
2023-05-21T12:52:19.320Z,25.60
2023-05-21T12:53:21.280Z,25.70
2023-05-21T12:54:30.880Z,25.70
2023-05-21T12:55:33.037Z,25.80
2023-05-21T12:56:45.550Z,25.90
2023-05-21T12:57:47.491Z,26.00
2023-05-21T12:58:51.013Z,26.10
2023-05-21T13:00:00.949Z,26.20
2023-05-21T13:01:05.164Z,26.30
2023-05-21T13:02:07.403Z,26.40
2023-05-21T13:03:09.308Z,26.30
2023-05-21T13:04:15.761Z,26.20
2023-05-21T13:05:19.351Z,26.10
2023-05-21T13:06:23.007Z,26.00
2023-05-21T13:07:30.300Z,26.00
2023-05-21T13:08:34.906Z,26.10
2023-05-21T13:09:36.777Z,25.90
2023-05-21T13:10:38.846Z,25.90
2023-05-21T13:11:40.979Z,25.90
2023-05-21T13:12:44.339Z,25.90
2023-05-21T13:13:46.526Z,26.00
2023-05-21T13:14:52.570Z,26.00
2023-05-21T13:15:55.356Z,26.10
2023-05-21T13:16:58.024Z,26.20
2023-05-21T13:18:01.476Z,26.20
2023-05-21T13:19:03.578Z,26.20
2023-05-21T13:20:26.318Z,26.30
2023-05-21T13:21:28.320Z,26.50
2023-05-21T13:22:30.134Z,26.50
2023-05-21T13:23:32.192Z,26.50
2023-05-21T13:24:34.428Z,26.60
2023-05-21T13:25:36.571Z,26.50
2023-05-21T13:26:38.390Z,26.50
2023-05-21T13:27:46.714Z,26.50
2023-05-21T13:28:50.358Z,26.60
2023-05-21T13:29:54.079Z,26.70
2023-05-21T13:30:59.013Z,26.80
2023-05-21T13:32:03.384Z,26.90
2023-05-21T13:33:06.602Z,26.90
2023-05-21T13:34:08.685Z,27.00
2023-05-21T13:35:12.307Z,27.00
2023-05-21T13:36:14.434Z,27.10
2023-05-21T13:37:16.286Z,27.10
2023-05-21T13:38:18.387Z,27.20
2023-05-21T13:39:26.713Z,27.30
2023-05-21T13:40:28.580Z,27.20
2023-05-21T13:41:30.720Z,27.20
2023-05-21T13:42:33.398Z,27.20